Time;durP1;ratioP1;P1;durP2;ratioP2;P2;SDS_P1;SDS_P2;PMS_P1;PMS_P2;Temp;Humidity;BMP_temperature;BMP_pressure;BME280_temperature;BME280_humidity;BME280_pressure;Samples;Min_cycle;Max_cycle;Signal;HPM_P1;HPM_P2
2021/12/16 00:01:45;;;;;;;29.63;17.63;;;;;;;7.43;90.22;102153.97;4851657;29;20033;-89
2021/12/16 00:32:37;;;;;;;27.50;17.42;;;;;;;7.29;92.27;102176.91;4852062;29;20060;-89
2021/12/16 00:35:10;;;;;;;28.35;18.15;;;;;;;7.44;92.40;102212.84;4843497;29;20458;-89
2021/12/16 00:37:40;;;;;;;27.65;17.38;;;;;;;7.29;91.87;102176.91;4851026;29;20060;-89
2021/12/16 00:40:12;;;;;;;25.70;16.58;;;;;;;7.29;91.78;102193.59;4859347;29;20053;-89
2021/12/16 00:42:50;;;;;;;29.75;17.45;;;;;;;7.26;92.13;102169.88;4853696;29;20054;-90
2021/12/16 00:45:32;;;;;;;27.60;16.77;;;;;;;7.45;92.06;102223.38;4840916;29;20554;-89
2021/12/16 00:48:08;;;;;;;25.08;15.93;;;;;;;7.27;92.31;102194.47;4831917;29;20046;-87
2021/12/16 00:55:56;;;;;;;25.60;16.55;;;;;;;7.38;92.33;102214.66;4835020;29;20057;-90
2021/12/16 00:58:32;;;;;;;27.77;17.40;;;;;;;7.16;92.60;102186.63;4834277;29;20136;-90
2021/12/16 01:09:18;;;;;;;25.58;15.95;;;;;;;7.16;92.78;102191.91;4850180;29;20046;-90
2021/12/16 01:39:57;;;;;;;26.67;16.50;;;;;;;7.17;93.17;102221.75;4861507;29;20152;-89
2021/12/16 01:42:30;;;;;;;25.65;15.75;;;;;;;7.24;93.24;102236.69;4851598;29;20053;-89
2021/12/16 01:48:33;;;;;;;23.45;15.85;;;;;;;6.94;93.14;102195.50;4862852;29;20056;-89
2021/12/16 01:50:56;;;;;;;25.80;16.40;;;;;;;6.91;93.45;102187.63;4853839;29;20111;-89
2021/12/16 01:56:39;;;;;;;26.90;17.02;;;;;;;6.95;92.82;102195.50;4856794;29;20514;-89
2021/12/16 01:59:09;;;;;;;26.88;16.98;;;;;;;6.94;92.69;102193.72;4860115;29;20046;-89
2021/12/16 02:01:38;;;;;;;27.52;17.00;;;;;;;7.14;93.19;102225.28;4858584;29;20145;-89
2021/12/16 02:04:18;;;;;;;25.65;15.75;;;;;;;6.67;93.56;102155.22;4859715;29;20052;-89
2021/12/16 02:09:31;;;;;;;24.63;15.87;;;;;;;7.10;93.50;102220.91;4860596;29;19961;-90
2021/12/16 02:29:09;;;;;;;27.60;15.95;;;;;;;7.18;92.42;102223.53;4873777;29;20053;-88
2021/12/16 02:34:55;;;;;;;24.58;16.42;;;;;;;7.02;92.27;102196.34;4856580;29;20045;-89
2021/12/16 02:37:17;;;;;;;25.17;15.93;;;;;;;6.97;92.13;102190.22;4851564;29;20053;-89
2021/12/16 02:39:44;;;;;;;23.35;15.48;;;;;;;6.83;91.90;102163.06;4861292;29;20094;-89
2021/12/16 02:42:18;;;;;;;24.55;15.63;;;;;;;6.96;91.85;102173.53;4868914;29;20053;-89
2021/12/16 02:50:15;;;;;;;24.55;15.55;;;;;;;6.90;92.40;102186.75;4860104;29;20125;-89
2021/12/16 02:52:44;;;;;;;25.30;16.08;;;;;;;7.08;92.55;102219.19;4860821;29;20083;-88
2021/12/16 02:55:13;;;;;;;24.48;15.65;;;;;;;6.91;91.73;102190.25;4859292;29;20080;-89
2021/12/16 02:57:49;;;;;;;26.38;16.38;;;;;;;6.89;91.79;102186.75;4861242;29;20053;-89
2021/12/16 03:00:18;;;;;;;28.00;16.05;;;;;;;6.64;91.98;102155.22;4862150;29;20050;-89
2021/12/16 03:02:49;;;;;;;24.02;15.57;;;;;;;6.95;91.83;102192.84;4863500;29;20056;-89
2021/12/16 03:05:20;;;;;;;24.02;16.27;;;;;;;7.00;92.05;102204.25;4863476;29;20122;-90
2021/12/16 03:07:49;;;;;;;24.40;16.27;;;;;;;6.86;91.98;102182.38;4857624;29;20129;-89
2021/12/16 03:13:00;;;;;;;24.52;15.73;;;;;;;6.94;92.23;102196.38;4864361;29;20059;-89
2021/12/16 03:15:55;;;;;;;25.65;16.48;;;;;;;6.75;91.95;102160.47;4862862;29;20049;-89
2021/12/16 03:21:22;;;;;;;24.53;15.83;;;;;;;6.88;91.87;102180.59;4861608;29;20112;-89
2021/12/16 03:24:06;;;;;;;26.83;16.10;;;;;;;7.07;92.23;102213.03;4857526;29;20531;-89
2021/12/16 03:27:25;;;;;;;23.35;15.35;;;;;;;7.08;91.50;102211.28;4843365;29;20117;-89
2021/12/16 03:34:57;;;;;;;24.63;15.73;;;;;;;6.82;91.46;102183.25;4861604;29;20068;-89
2021/12/16 03:37:25;;;;;;;24.55;16.17;;;;;;;6.85;91.69;102192.91;4851281;29;20053;-90
2021/12/16 03:40:08;;;;;;;25.52;16.55;;;;;;;6.85;91.68;102196.41;4845295;29;20053;-89
2021/12/16 03:42:53;;;;;;;25.23;15.60;;;;;;;6.83;91.26;102192.03;4860993;29;20106;-90
2021/12/16 03:48:49;;;;;;;22.90;15.52;;;;;;;6.79;91.70;102185.00;4858831;29;20049;-91
2021/12/16 03:51:30;;;;;;;26.77;16.27;;;;;;;7.01;91.80;102234.13;4861516;29;20053;-89
2021/12/16 03:54:00;;;;;;;;;;;;;;;6.99;91.95;102226.22;4860534;29;20135;-89
2021/12/16 03:56:28;;;;;;;24.75;16.25;;;;;;;6.73;92.46;102190.31;4862227;29;19928;-90
2021/12/16 03:58:56;;;;;;;22.17;15.35;;;;;;;6.79;92.28;102208.69;4861968;29;20061;-89
2021/12/16 04:01:27;;;;;;;25.10;16.60;;;;;;;6.80;91.67;102200.81;4862736;29;20542;-89
2021/12/16 04:03:57;;;;;;;22.65;15.25;;;;;;;7.03;91.58;102237.63;4860963;29;20064;-89
2021/12/16 04:06:26;;;;;;;23.20;15.60;;;;;;;6.71;91.45;102186.81;4863230;29;20517;-90
2021/12/16 04:08:57;;;;;;;24.65;15.82;;;;;;;7.01;91.49;102234.13;4868126;29;20057;-90
2021/12/16 04:11:39;;;;;;;22.73;15.32;;;;;;;6.93;91.72;102235.88;4859071;29;20056;-88
2021/12/16 04:14:09;;;;;;;27.23;16.90;;;;;;;6.65;91.22;102175.41;4861038;29;20081;-89
2021/12/16 04:16:53;;;;;;;25.90;16.90;;;;;;;6.95;91.54;102228.84;4856510;29;20060;-90
2021/12/16 04:19:25;;;;;;;24.73;16.02;;;;;;;6.79;91.42;102217.47;4859651;29;20537;-89
2021/12/16 04:21:59;;;;;;;24.35;15.30;;;;;;;6.97;91.48;102250.78;4862083;29;20057;-90
2021/12/16 04:24:26;;;;;;;25.55;16.55;;;;;;;6.98;91.52;102252.56;4861553;29;20055;-90
2021/12/16 04:26:56;;;;;;;27.75;17.15;;;;;;;6.99;91.26;102249.03;4860046;29;20102;-90
2021/12/16 04:29:30;;;;;;;23.85;16.23;;;;;;;6.72;91.16;102193.81;4862891;29;20077;-89
2021/12/16 04:32:01;;;;;;;25.03;16.17;;;;;;;6.51;91.67;102173.66;4850613;29;20053;-89
2021/12/16 04:34:28;;;;;;;24.33;16.85;;;;;;;6.52;91.73;102178.06;4855601;29;20573;-89
2021/12/16 04:36:58;;;;;;;24.58;16.70;;;;;;;6.73;92.07;102219.28;4857948;29;20057;-89
2021/12/16 04:39:32;;;;;;;28.02;17.48;;;;;;;6.66;91.90;102210.50;4857989;29;20050;-89
2021/12/16 04:42:00;;;;;;;27.27;17.13;;;;;;;6.67;92.08;102218.38;4859037;29;20106;-90
2021/12/16 04:44:28;;;;;;;24.88;16.75;;;;;;;6.40;92.52;102178.97;4862162;29;20586;-89
2021/12/16 04:47:07;;;;;;;25.58;16.02;;;;;;;6.61;92.88;102213.13;4864744;29;20058;-89
2021/12/16 04:49:36;;;;;;;25.15;15.95;;;;;;;6.73;92.04;102228.03;4878961;29;20071;-89
2021/12/16 04:52:11;;;;;;;25.92;16.92;;;;;;;6.46;92.25;102199.13;4869153;29;20072;-90
2021/12/16 04:54:39;;;;;;;26.75;16.73;;;;;;;6.59;92.04;102228.06;4864120;29;20074;-89
2021/12/16 04:57:07;;;;;;;24.63;16.25;;;;;;;6.51;92.15;102219.28;4868565;29;20078;-89
2021/12/16 04:59:36;;;;;;;23.25;15.98;;;;;;;6.60;92.65;102221.94;4878736;29;20096;-89
2021/12/16 05:02:09;;;;;;;24.45;15.73;;;;;;;6.83;92.10;102266.63;4875205;29;20041;-89
2021/12/16 05:04:37;;;;;;;25.95;16.25;;;;;;;6.75;91.83;102251.75;4878161;29;20038;-90
2021/12/16 05:07:08;;;;;;;24.77;16.25;;;;;;;6.77;92.14;102258.72;4868279;29;20067;-90
2021/12/16 05:12:19;;;;;;;26.00;16.92;;;;;;;6.37;92.42;102212.28;4887139;29;20052;-89
2021/12/16 05:14:47;;;;;;;27.85;16.63;;;;;;;6.72;92.07;102254.38;4879166;29;20039;-90
2021/12/16 05:17:26;;;;;;;25.10;15.68;;;;;;;6.68;92.08;102251.75;4881330;29;20045;-88
2021/12/16 05:20:00;;;;;;;26.67;16.77;;;;;;;6.44;91.99;102208.78;4881571;29;20037;-88
2021/12/16 05:25:22;;;;;;;25.08;16.67;;;;;;;6.66;92.29;102242.09;4857528;29;20080;-89
2021/12/16 05:27:55;;;;;;;27.65;17.30;;;;;;;6.83;92.36;102271.03;4861397;29;20192;-89
2021/12/16 05:30:22;;;;;;;26.02;16.88;;;;;;;6.84;92.60;102272.78;4866113;29;20555;-88
2021/12/16 05:32:49;;;;;;;27.15;17.35;;;;;;;6.84;92.46;102267.50;4867561;29;20050;-88
2021/12/16 05:35:20;;;;;;;;;;;;;;;6.85;92.26;102278.03;4859926;29;20133;-88
2021/12/16 05:37:48;;;;;;;27.70;17.35;;;;;;;6.65;92.17;102245.59;4861196;29;19928;-89
2021/12/16 05:40:23;;;;;;;26.95;17.05;;;;;;;6.49;92.48;102220.16;4861351;29;20057;-89
2021/12/16 05:42:53;;;;;;;24.55;16.60;;;;;;;6.37;92.23;102202.66;4857199;29;20058;-89
2021/12/16 05:45:26;;;;;;;26.45;17.55;;;;;;;6.65;92.54;102248.22;4860693;29;20057;-89
2021/12/16 05:47:55;;;;;;;27.17;17.80;;;;;;;6.78;92.42;102275.41;4859373;29;20053;-88
2021/12/16 05:50:23;;;;;;;28.80;17.75;;;;;;;6.65;92.23;102248.22;4860643;29;20045;-89
2021/12/16 05:52:51;;;;;;;29.92;18.33;;;;;;;6.66;92.28;102242.97;4860686;29;20057;-89
2021/12/16 05:55:20;;;;;;;26.67;17.35;;;;;;;6.93;92.47;102291.19;4860775;29;20421;-89
2021/12/16 05:57:49;;;;;;;25.15;16.35;;;;;;;6.62;92.13;102219.25;4858595;29;20521;-89
2021/12/16 06:00:32;;;;;;;26.52;17.30;;;;;;;6.82;91.76;102267.50;4857803;29;20067;-89
2021/12/16 06:03:01;;;;;;;26.77;17.08;;;;;;;6.62;91.18;102235.94;4858781;29;20523;-89
2021/12/16 06:05:30;;;;;;;25.05;16.50;;;;;;;6.59;91.44;102245.63;4863132;29;20049;-89
2021/12/16 06:08:03;;;;;;;28.63;17.98;;;;;;;6.72;92.04;102267.53;4860573;29;20049;-89
2021/12/16 06:13:08;;;;;;;29.73;18.25;;;;;;;6.74;91.94;102277.19;4878425;29;20044;-89
2021/12/16 06:29:29;;;;;;;26.77;17.50;;;;;;;6.65;91.87;102278.06;4857554;29;20390;-89
2021/12/16 06:31:58;;;;;;;26.92;17.52;;;;;;;6.65;92.40;102278.06;4856614;29;20095;-89
2021/12/16 06:34:25;;;;;;;24.67;17.67;;;;;;;6.83;92.67;102318.41;4865252;29;20126;-89
2021/12/16 06:36:53;;;;;;;28.48;18.33;;;;;;;6.69;93.10;102290.34;4865553;29;20106;-89
2021/12/16 06:39:20;;;;;;;29.35;17.85;;;;;;;6.62;93.13;102283.31;4853286;29;20589;-88
2021/12/16 06:41:46;;;;;;;28.02;17.80;;;;;;;6.66;92.79;102290.34;4857720;29;20049;-87
2021/12/16 06:44:25;;;;;;;29.83;18.60;;;;;;;6.59;93.01;102293.88;4864719;29;20048;-88
2021/12/16 06:46:58;;;;;;;29.33;18.02;;;;;;;6.61;93.38;102304.41;4859892;29;20057;-88
2021/12/16 06:49:26;;;;;;;28.33;17.77;;;;;;;6.62;93.64;102306.13;4861839;29;20056;-88
2021/12/16 06:51:58;;;;;;;32.08;19.23;;;;;;;6.64;93.29;102301.75;4864546;29;20073;-88
2021/12/16 06:54:34;;;;;;;31.45;18.83;;;;;;;6.64;93.36;102307.91;4864570;29;20097;-88
2021/12/16 06:59:34;;;;;;;26.80;17.67;;;;;;;6.47;93.34;102277.19;4863142;29;20148;-88
2021/12/16 07:05:00;;;;;;;28.58;18.67;;;;;;;6.74;92.91;102324.59;4852151;29;20106;-88
2021/12/16 07:07:27;;;;;;;31.50;18.65;;;;;;;6.75;92.79;102331.59;4864023;29;20049;-88
2021/12/16 07:09:55;;;;;;;30.85;19.50;;;;;;;6.69;92.97;102327.22;4878102;29;20048;-88
2021/12/16 07:12:34;;;;;;;32.47;19.25;;;;;;;6.85;92.46;102354.41;4868542;29;20057;-90
2021/12/16 07:15:16;;;;;;;30.67;18.13;;;;;;;6.76;92.76;102353.56;4874788;29;20501;-88
2021/12/16 07:17:49;;;;;;;31.00;18.70;;;;;;;6.92;92.46;102382.50;4860013;29;20069;-89
2021/12/16 07:20:20;;;;;;;30.77;19.65;;;;;;;6.71;92.21;102353.53;4864567;29;20520;-89
2021/12/16 07:22:48;;;;;;;26.63;18.00;;;;;;;6.90;92.17;102388.66;4866022;29;20049;-89
2021/12/16 07:25:16;;;;;;;27.50;18.48;;;;;;;6.59;92.25;102337.75;4880066;29;20029;-89
2021/12/16 07:27:43;;;;;;;31.15;19.15;;;;;;;6.80;92.65;102403.56;4882826;29;20049;-88
2021/12/16 07:30:15;;;;;;;27.75;18.08;;;;;;;6.58;92.54;102365.81;4879007;29;20045;-88
2021/12/16 07:32:42;;;;;;;28.15;18.38;;;;;;;6.36;92.39;102326.31;4883076;29;20049;-89
2021/12/16 07:35:13;;;;;;;28.73;18.00;;;;;;;6.62;92.72;102371.94;4887145;29;20032;-90
2021/12/16 07:37:40;;;;;;;27.63;18.10;;;;;;;6.71;92.80;102387.78;4881121;29;20102;-90
2021/12/16 07:40:09;;;;;;;31.05;18.50;;;;;;;6.67;92.83;102386.88;4881301;29;20061;-91
2021/12/16 07:45:22;;;;;;;27.98;18.77;;;;;;;6.40;93.23;102357.91;4882442;29;20105;-90
2021/12/16 07:47:49;;;;;;;31.17;18.85;;;;;;;6.60;92.55;102382.50;4880561;29;20062;-90
2021/12/16 07:50:16;;;;;;;28.90;19.35;;;;;;;6.65;92.70;102393.00;4881085;29;20082;-90
2021/12/16 07:52:43;;;;;;;28.42;18.63;;;;;;;6.68;92.89;102398.28;4870291;29;20069;-91
2021/12/16 07:55:16;;;;;;;29.17;18.83;;;;;;;6.64;93.23;102391.25;4867104;29;20140;-90
2021/12/16 07:57:45;;;;;;;32.55;19.33;;;;;;;6.33;93.51;102337.72;4864794;29;20045;-91
2021/12/16 08:00:58;;;;;;;;;;;;;;;;;;;;;
2021/12/16 08:03:38;;;;;;;31.92;20.15;;;;;;;6.61;93.32;102363.16;4872098;29;20461;-92
2021/12/16 08:06:12;;;;;;;32.10;20.48;;;;;;;6.48;92.99;102321.06;4867131;29;20049;-92
2021/12/16 08:08:40;;;;;;;28.38;19.10;;;;;;;6.68;92.51;102359.69;4861950;29;20052;-89
2021/12/16 08:11:07;;;;;;;29.40;18.80;;;;;;;6.85;91.88;102380.75;4858642;29;20045;-91
2021/12/16 08:13:36;;;;;;;34.53;19.88;;;;;;;7.12;91.18;102421.13;4879692;29;20065;-89
2021/12/16 08:16:03;;;;;;;33.10;20.00;;;;;;;7.15;90.93;102416.72;4882386;29;20033;-90
2021/12/16 08:18:32;;;;;;;29.30;19.52;;;;;;;7.06;90.11;102394.78;4859053;29;20048;-90
2021/12/16 08:20:59;;;;;;;35.80;20.00;;;;;;;7.00;90.02;102374.59;4857989;29;20597;-91
2021/12/16 08:23:26;;;;;;;30.50;19.17;;;;;;;7.22;89.95;102425.53;4868689;29;20163;-90
2021/12/16 08:25:53;;;;;;;31.02;19.75;;;;;;;6.91;89.72;102374.63;4871927;29;20045;-90
2021/12/16 08:28:22;;;;;;;29.13;18.80;;;;;;;7.20;89.27;102422.88;4866675;29;20054;-90
2021/12/16 08:30:50;;;;;;;27.70;18.63;;;;;;;7.00;89.57;102393.03;4860016;29;20647;-90
2021/12/16 08:33:18;;;;;;;34.40;19.05;;;;;;;6.88;88.54;102358.81;4857700;29;20084;-90
2021/12/16 08:35:50;;;;;;;30.85;19.20;;;;;;;7.26;88.61;102429.88;4857216;29;20057;-90
2021/12/16 08:38:21;;;;;;;26.65;18.88;;;;;;;7.15;88.95;102419.38;4856236;29;20113;-90
2021/12/16 08:40:51;;;;;;;30.60;19.13;;;;;;;7.16;88.88;102423.75;4853233;29;20144;-90
2021/12/16 08:43:19;;;;;;;30.27;19.45;;;;;;;7.11;88.96;102414.09;4851832;29;20060;-91
2021/12/16 08:45:52;;;;;;;29.13;19.42;;;;;;;7.27;89.07;102443.06;4854923;29;20117;-90
2021/12/16 08:48:22;;;;;;;32.35;20.40;;;;;;;7.26;88.75;102449.22;4853478;29;20045;-91
2021/12/16 08:50:50;;;;;;;30.80;19.85;;;;;;;7.22;88.40;102442.22;4858348;29;20041;-91
2021/12/16 08:53:21;;;;;;;29.70;18.67;;;;;;;7.46;88.67;102479.94;4858487;29;20046;-91
2021/12/16 08:55:50;;;;;;;31.38;20.05;;;;;;;7.35;88.33;102462.41;4855598;29;20462;-89
2021/12/16 08:58:17;;;;;;;31.10;19.77;;;;;;;7.10;88.79;102407.06;4857695;29;20903;-91
2021/12/16 09:00:51;;;;;;;29.52;19.20;;;;;;;7.44;88.52;102463.25;4858493;29;20042;-91
2021/12/16 09:03:18;;;;;;;28.77;19.23;;;;;;;7.57;87.54;102476.41;4858439;29;20073;-90
2021/12/16 09:05:46;;;;;;;28.30;19.20;;;;;;;7.55;87.56;102470.28;4861982;29;20109;-90
2021/12/16 09:08:12;;;;;;;29.70;18.20;;;;;;;7.34;88.13;102433.41;4859490;29;20081;-90
2021/12/16 09:10:39;;;;;;;31.48;19.73;;;;;;;7.20;87.50;102425.53;4858045;29;20041;-91
2021/12/16 09:13:12;;;;;;;31.20;19.98;;;;;;;7.38;88.11;102451.88;4859402;29;20592;-90
2021/12/16 09:15:55;;;;;;;32.65;19.70;;;;;;;7.44;87.83;102466.78;4858706;29;20049;-91
2021/12/16 09:18:25;;;;;;;28.65;19.33;;;;;;;7.20;87.88;102428.16;4861648;29;20054;-90
2021/12/16 09:20:54;;;;;;;32.15;19.63;;;;;;;7.42;nan;102472.91;4855514;29;20628;-91
2021/12/16 09:23:31;;;;;;;32.92;20.17;;;;;;;7.05;89.16;102441.34;4859763;29;20057;-90
2021/12/16 09:25:58;;;;;;;31.67;21.00;;;;;;;6.96;89.83;102447.47;4874932;29;20041;-90
2021/12/16 09:28:27;;;;;;;33.97;20.45;;;;;;;6.92;89.89;102435.19;4868181;29;20053;-91
2021/12/16 09:30:57;;;;;;;28.83;19.38;;;;;;;7.44;89.20;102494.88;4855428;29;20048;-91
2021/12/16 09:33:28;;;;;;;31.08;19.83;;;;;;;7.74;89.32;102503.63;4858610;29;20050;-91
2021/12/16 09:36:00;;;;;;;27.13;18.10;;;;;;;8.07;86.89;102494.75;4852664;29;20521;-91
2021/12/16 09:38:35;;;;;;;29.77;19.38;;;;;;;8.46;84.79;102511.38;4846504;29;20053;-91
2021/12/16 09:41:08;;;;;;;31.95;18.77;;;;;;;8.15;83.11;102425.25;4858447;29;20041;-91
2021/12/16 09:43:40;;;;;;;32.08;20.02;;;;;;;8.47;82.14;102460.34;4861596;29;20049;-90
2021/12/16 09:46:11;;;;;;;31.15;20.02;;;;;;;8.67;82.51;102476.03;4860004;29;20053;-91
2021/12/16 09:48:40;;;;;;;29.60;19.95;;;;;;;8.48;81.44;102464.72;4859719;29;20049;-91
2021/12/16 09:51:13;;;;;;;30.83;20.02;;;;;;;8.61;82.46;102515.72;4855655;29;20053;-92
2021/12/16 09:53:40;;;;;;;26.52;18.70;;;;;;;8.74;82.20;102514.75;4858561;29;20052;-91
2021/12/16 09:56:09;;;;;;;26.60;18.00;;;;;;;8.74;82.79;102497.13;4852797;29;21042;-90
2021/12/16 09:58:40;;;;;;;25.13;17.98;;;;;;;8.88;82.50;102473.28;4870666;29;20049;-91
2021/12/16 10:01:10;;;;;;;26.30;17.88;;;;;;;8.90;80.72;102434.50;4858797;29;20077;-91
2021/12/16 10:03:42;;;;;;;28.20;18.92;;;;;;;9.42;78.08;102498.41;4858216;29;20053;-91
2021/12/16 10:06:09;;;;;;;26.17;18.10;;;;;;;9.42;78.38;102513.41;4860107;29;20053;-91
2021/12/16 10:08:40;;;;;;;24.35;17.35;;;;;;;9.09;78.39;102462.56;4868531;29;20068;-90
2021/12/16 10:11:07;;;;;;;25.50;17.67;;;;;;;9.30;78.87;102503.78;4860940;29;20050;-91
2021/12/16 10:19:22;;;;;;;29.20;18.10;;;;;;;8.94;79.36;102483.81;4869756;29;20042;-90
2021/12/16 10:21:50;;;;;;;29.67;19.55;;;;;;;8.76;79.75;102462.78;4863518;29;21475;-90
2021/12/16 10:24:29;;;;;;;29.38;19.27;;;;;;;8.72;80.25;102476.91;4865499;29;20080;-90
2021/12/16 10:27:16;;;;;;;27.93;19.43;;;;;;;8.59;80.33;102472.56;4869148;29;20092;-90
2021/12/16 10:30:06;;;;;;;31.25;19.42;;;;;;;8.63;81.16;102498.97;4867225;29;20482;-90
2021/12/16 10:32:43;;;;;;;29.98;19.73;;;;;;;8.47;81.12;102460.34;4867131;29;20037;-90
2021/12/16 10:35:18;;;;;;;29.10;19.50;;;;;;;8.61;81.91;102469.03;4857754;29;20061;-90
2021/12/16 10:37:58;;;;;;;27.10;17.88;;;;;;;8.59;81.38;102447.03;4864782;29;20058;-90
2021/12/16 10:40:25;;;;;;;31.60;19.33;;;;;;;8.84;81.03;102489.13;4857385;29;20041;-89
2021/12/16 10:42:53;;;;;;;28.38;19.33;;;;;;;8.38;81.33;102413.72;4860148;29;20056;-90
2021/12/16 10:45:43;;;;;;;29.60;19.77;;;;;;;8.79;81.93;102478.63;4865245;29;20045;-90
2021/12/16 10:48:13;;;;;;;30.13;20.17;;;;;;;8.90;81.70;102487.34;4860741;29;20073;-90
2021/12/16 10:50:54;;;;;;;30.15;20.25;;;;;;;8.71;80.87;102460.16;4856368;29;20047;-90
2021/12/16 10:53:42;;;;;;;28.42;19.58;;;;;;;8.88;81.35;102480.31;4858404;29;20116;-91
2021/12/16 10:56:09;;;;;;;29.88;20.67;;;;;;;8.39;81.78;102412.84;4857314;29;20050;-90
2021/12/16 10:58:53;;;;;;;27.35;19.25;;;;;;;8.76;82.06;102487.44;4859671;29;20417;-90
2021/12/16 11:01:47;;;;;;;31.38;21.10;;;;;;;8.85;81.67;102490.91;4856142;29;20073;-90
2021/12/16 11:04:21;;;;;;;31.13;19.75;;;;;;;8.60;81.91;102454.09;4853392;29;20046;-91
2021/12/16 11:07:19;;;;;;;33.83;20.38;;;;;;;8.73;81.74;102474.25;4865094;29;20049;-90
2021/12/16 11:10:12;;;;;;;29.55;19.67;;;;;;;8.84;82.10;102487.38;4858469;29;20034;-91
2021/12/16 11:12:51;;;;;;;32.38;19.63;;;;;;;8.78;81.71;102475.09;4854912;29;20084;-90
2021/12/16 11:15:21;;;;;;;27.63;18.92;;;;;;;8.92;82.45;102484.69;4851930;29;20058;-90
2021/12/16 11:18:05;;;;;;;31.40;20.02;;;;;;;8.64;81.35;102416.22;4848623;29;20505;-91
2021/12/16 11:20:46;;;;;;;27.25;19.17;;;;;;;9.09;81.22;102474.88;4863075;29;20042;-90
2021/12/16 11:27:44;;;;;;;32.08;20.13;;;;;;;9.10;81.82;102471.34;4859908;29;20066;-91
2021/12/16 11:30:45;;;;;;;27.80;19.23;;;;;;;9.05;80.89;102468.75;4867155;29;20053;-93
2021/12/16 11:33:22;;;;;;;31.48;20.33;;;;;;;8.94;81.08;102443.28;4860597;29;20404;-91
2021/12/16 11:35:50;;;;;;;29.15;19.92;;;;;;;9.14;81.15;102478.34;4853323;29;20102;-91
2021/12/16 11:42:15;;;;;;;27.33;19.08;;;;;;;9.19;80.88;102471.28;5175045;23;20032;-90
2021/12/16 11:44:52;;;;;;;29.02;20.10;;;;;;;9.24;80.56;102471.25;4898583;29;20071;-91
2021/12/16 11:47:26;;;;;;;29.60;20.00;;;;;;;9.03;80.32;102435.28;4896439;29;20041;-91
2021/12/16 11:49:59;;;;;;;30.00;19.15;;;;;;;8.87;80.58;102401.94;4900511;29;20053;-92
2021/12/16 11:52:35;;;;;;;30.42;19.98;;;;;;;9.22;81.00;102462.44;4906174;29;20104;-92
2021/12/16 11:55:07;;;;;;;31.00;19.75;;;;;;;9.32;81.05;102472.91;4895690;29;20121;-92
2021/12/16 11:57:41;;;;;;;26.83;18.65;;;;;;;9.23;80.49;102449.22;4900444;29;20157;-92
2021/12/16 12:00:19;;;;;;;26.58;18.63;;;;;;;9.16;81.09;102421.06;4889923;29;20518;-90
2021/12/16 12:02:54;;;;;;;29.60;19.17;;;;;;;9.09;81.02;102406.16;4899171;29;20045;-90
2021/12/16 12:05:37;;;;;;;30.95;20.48;;;;;;;9.14;81.03;102434.28;4888568;29;20047;-90
2021/12/16 12:08:26;;;;;;;29.55;20.45;;;;;;;9.43;80.51;102476.34;4896546;29;20104;-92
2021/12/16 12:11:13;;;;;;;29.85;20.02;;;;;;;9.43;80.20;102473.72;4897227;29;20076;-91
2021/12/16 12:13:47;;;;;;;28.77;19.05;;;;;;;9.20;80.06;102435.13;4907488;29;20625;-90
2021/12/16 12:16:39;;;;;;;30.08;19.70;;;;;;;9.39;80.35;102464.03;4886259;29;20361;-90
2021/12/16 12:19:11;;;;;;;28.98;19.52;;;;;;;9.35;80.79;102467.59;4914378;29;22102;-91
2021/12/16 12:21:44;;;;;;;27.35;19.08;;;;;;;9.38;80.48;102457.00;4915319;29;20080;-92
2021/12/16 12:24:21;;;;;;;30.75;19.35;;;;;;;9.14;80.74;102421.06;4908241;29;20080;-92
2021/12/16 12:26:53;;;;;;;27.60;18.02;;;;;;;9.40;80.76;102451.72;4905912;29;20085;-91
2021/12/16 12:29:31;;;;;;;29.40;19.50;;;;;;;9.23;80.73;102408.69;4907560;29;20044;-91
2021/12/16 12:32:07;;;;;;;28.65;19.42;;;;;;;9.46;80.32;102446.34;4907181;29;20057;-91
2021/12/16 12:34:37;;;;;;;28.38;18.88;;;;;;;9.34;80.31;102417.38;4910995;29;20050;-90
2021/12/16 12:37:08;;;;;;;;;;;;;;;9.53;80.52;102452.47;4904697;29;20056;-91
2021/12/16 12:39:45;;;;;;;28.17;18.73;;;;;;;9.26;80.20;102406.00;4904576;29;20439;-91
2021/12/16 12:42:22;;;;;;;28.58;18.83;;;;;;;9.15;80.19;102387.59;4897050;29;20054;-90
2021/12/16 12:44:49;;;;;;;27.77;19.13;;;;;;;9.30;80.29;102413.88;4922691;29;20044;-91
2021/12/16 12:47:23;;;;;;;30.20;18.60;;;;;;;9.31;80.33;102420.94;4920688;29;20036;-90
2021/12/16 12:49:53;;;;;;;32.83;20.05;;;;;;;9.31;80.13;102414.75;4920382;29;20046;-90
2021/12/16 12:52:26;;;;;;;27.55;19.17;;;;;;;9.26;80.04;102400.72;4920418;29;20045;-90
2021/12/16 12:55:01;;;;;;;33.03;19.52;;;;;;;9.57;80.25;102430.38;4921431;29;20044;-91
2021/12/16 12:57:32;;;;;;;28.63;18.63;;;;;;;9.88;79.66;102460.03;4922391;29;20029;-92
2021/12/16 13:00:07;;;;;;;26.13;18.00;;;;;;;9.99;78.95;102458.13;4916054;29;20048;-91
2021/12/16 13:02:37;;;;;;;33.40;17.70;;;;;;;9.89;78.16;102406.22;4916605;29;20032;-92
2021/12/16 13:05:25;;;;;;;24.58;17.27;;;;;;;9.80;76.75;102400.13;4911582;29;20060;-93
2021/12/16 13:08:00;;;;;;;27.92;17.63;;;;;;;9.94;76.96;102415.81;4896403;29;20056;-91
2021/12/16 13:10:41;;;;;;;26.95;17.52;;;;;;;10.06;77.08;102434.22;4896916;29;20064;-92
2021/12/16 13:13:32;;;;;;;26.55;17.17;;;;;;;9.97;77.44;102418.44;4901289;29;20044;-92
2021/12/16 13:16:33;;;;;;;28.92;18.25;;;;;;;10.25;77.20;102453.41;4899091;29;20041;-93
2021/12/16 13:32:04;;;;;;;27.65;18.50;;;;;;;10.09;77.66;102459.75;4898961;29;20044;-92
2021/12/16 13:42:03;;;;;;;29.20;18.05;;;;;;;9.90;79.22;102451.19;4874279;29;20064;-92
2021/12/16 14:23:25;;;;;;;31.88;19.00;;;;;;;9.25;83.70;102484.44;4839496;29;20041;-91
2021/12/16 14:49:52;;;;;;;30.02;18.77;;;;;;;9.36;85.39;102495.81;4856721;29;20124;-91
2021/12/16 14:52:23;;;;;;;32.80;19.23;;;;;;;9.11;85.14;102467.81;4859213;29;20041;-91
2021/12/16 14:55:18;;;;;;;31.40;18.80;;;;;;;9.39;84.95;102513.41;4881160;29;20030;-91
2021/12/16 14:57:50;;;;;;;29.60;19.27;;;;;;;9.34;85.38;102502.88;4876761;29;21477;-91
2021/12/16 15:00:20;;;;;;;30.45;18.10;;;;;;;9.35;85.12;102507.25;4863108;29;20072;-91
2021/12/16 15:02:52;;;;;;;31.75;18.38;;;;;;;9.32;85.20;102514.34;4862823;29;20114;-91
2021/12/16 15:05:27;;;;;;;29.80;19.63;;;;;;;9.01;85.72;102468.75;4872625;29;20069;-89
2021/12/16 15:08:10;;;;;;;31.48;18.70;;;;;;;9.07;85.79;102474.00;4873012;29;20058;-91
2021/12/16 15:10:37;;;;;;;26.98;18.92;;;;;;;9.08;85.99;102470.50;4864095;29;20046;-91
2021/12/16 15:13:16;;;;;;;32.30;20.27;;;;;;;9.10;86.56;102476.66;4865544;29;20049;-90
2021/12/16 15:15:53;;;;;;;29.67;19.42;;;;;;;9.01;86.53;102467.00;4875087;29;20051;-89
2021/12/16 15:39:17;;;;;;;30.83;18.63;;;;;;;8.73;88.75;102489.22;4865074;29;19924;-88
2021/12/16 15:44:22;;;;;;;32.58;20.25;;;;;;;8.68;89.46;102480.44;4868052;29;20129;-90
2021/12/16 15:46:52;;;;;;;32.17;19.48;;;;;;;8.76;89.36;102505.94;4864089;29;20056;-89
2021/12/16 15:49:22;;;;;;;31.65;19.98;;;;;;;8.63;90.00;102480.47;4869206;29;20042;-89
2021/12/16 15:51:53;;;;;;;34.90;20.73;;;;;;;8.65;89.87;102491.03;4866014;29;20037;-90
2021/12/16 15:54:22;;;;;;;35.15;20.58;;;;;;;8.67;89.76;102490.13;4863640;29;20061;-89
2021/12/16 15:56:51;;;;;;;32.85;19.98;;;;;;;8.35;90.31;102444.53;4850206;29;20066;-89
2021/12/16 15:59:28;;;;;;;29.55;19.15;;;;;;;8.59;90.21;102502.50;4847243;29;20145;-92
2021/12/16 16:01:58;;;;;;;35.53;21.20;;;;;;;8.20;90.89;102436.66;4843805;29;20185;-89
2021/12/16 16:04:32;;;;;;;38.13;20.63;;;;;;;8.19;91.11;102429.63;4844134;29;20491;-89
2021/12/16 16:07:09;;;;;;;34.92;19.88;;;;;;;8.47;91.13;102470.88;4845988;29;20061;-90
2021/12/16 16:09:47;;;;;;;34.05;20.55;;;;;;;8.67;91.29;102500.69;4844567;29;20073;-89
2021/12/16 16:12:17;;;;;;;32.85;19.95;;;;;;;8.41;90.85;102461.22;4844511;29;20058;-89
2021/12/16 16:14:49;;;;;;;34.65;21.15;;;;;;;8.61;91.14;102495.47;4841411;29;20199;-92
2021/12/16 16:17:23;;;;;;;37.88;20.42;;;;;;;8.22;91.10;102440.16;4842812;29;20157;-92